createdAt,value
2023-05-09T00:00:19.748Z,47.53
2023-05-09T00:01:19.955Z,49.31
2023-05-09T00:02:20.126Z,77.02
2023-05-09T00:03:20.347Z,48.82
2023-05-09T00:04:20.489Z,52.21
2023-05-09T00:05:21.861Z,69.29
2023-05-09T00:06:20.890Z,73.64
2023-05-09T00:07:21.040Z,105.86
2023-05-09T00:08:21.908Z,73.80
2023-05-09T00:09:21.444Z,76.38
2023-05-09T00:10:21.607Z,49.79
2023-05-09T00:11:22.368Z,77.67
2023-05-09T00:12:22.006Z,55.43
2023-05-09T00:13:22.344Z,50.76
2023-05-09T00:14:22.413Z,48.02
2023-05-09T00:15:24.248Z,73.80
2023-05-09T00:16:23.431Z,51.24
2023-05-09T00:17:22.983Z,48.18
2023-05-09T00:18:23.146Z,49.47
2023-05-09T00:19:23.870Z,48.02
2023-05-09T00:20:23.926Z,49.47
2023-05-09T00:21:24.362Z,51.72
2023-05-09T00:22:25.374Z,69.29
2023-05-09T00:23:24.919Z,69.77
2023-05-09T00:24:24.905Z,52.37
2023-05-09T00:25:24.392Z,71.54
2023-05-09T00:26:25.398Z,62.04
2023-05-09T00:27:24.764Z,53.33
2023-05-09T00:28:25.971Z,47.86
2023-05-09T00:29:25.117Z,48.34
2023-05-09T00:30:25.865Z,76.22
2023-05-09T00:31:25.524Z,48.02
2023-05-09T00:32:26.384Z,76.86
2023-05-09T00:33:25.903Z,53.98
2023-05-09T00:34:26.066Z,75.73
2023-05-09T00:35:26.216Z,48.66
2023-05-09T00:36:26.394Z,48.50
2023-05-09T00:37:26.549Z,49.47
2023-05-09T00:38:27.868Z,49.47
2023-05-09T00:39:26.893Z,48.50
2023-05-09T00:40:28.390Z,48.02
2023-05-09T00:41:27.159Z,47.70
2023-05-09T00:42:27.310Z,50.92
2023-05-09T00:43:27.608Z,48.66
2023-05-09T00:44:28.418Z,77.83
2023-05-09T00:45:27.807Z,55.11
2023-05-09T00:46:28.024Z,48.50
2023-05-09T00:47:29.908Z,48.18
2023-05-09T00:48:28.452Z,48.50
2023-05-09T00:49:28.618Z,47.86
2023-05-09T00:50:28.776Z,48.66
2023-05-09T00:51:29.875Z,60.10
2023-05-09T00:52:29.923Z,81.86
2023-05-09T00:53:29.337Z,49.15
2023-05-09T00:54:29.499Z,47.37
2023-05-09T00:55:29.658Z,66.23
2023-05-09T00:56:29.805Z,48.02
2023-05-09T00:57:29.959Z,60.59
2023-05-09T00:58:30.993Z,74.28
2023-05-09T00:59:30.266Z,47.70
2023-05-09T01:00:30.434Z,50.43
2023-05-09T01:01:31.422Z,48.02
2023-05-09T01:02:30.748Z,47.53
2023-05-09T01:03:32.031Z,78.47
2023-05-09T01:04:31.115Z,48.18
2023-05-09T01:05:31.309Z,74.12
2023-05-09T01:06:31.484Z,77.83
2023-05-09T01:07:33.377Z,72.35
2023-05-09T01:08:31.869Z,48.34
2023-05-09T01:09:32.930Z,48.82
2023-05-09T01:10:32.221Z,59.46
2023-05-09T01:11:32.429Z,50.11
2023-05-09T01:12:32.576Z,48.66
2023-05-09T01:13:32.736Z,48.98
2023-05-09T01:14:34.493Z,48.02
2023-05-09T01:15:33.109Z,72.35
2023-05-09T01:16:33.325Z,48.50
2023-05-09T01:17:34.894Z,50.27
2023-05-09T01:18:34.412Z,48.50
2023-05-09T01:19:34.885Z,70.42
2023-05-09T01:20:34.029Z,50.92
2023-05-09T01:21:34.199Z,52.85
2023-05-09T01:22:34.386Z,50.27
2023-05-09T01:23:34.533Z,71.87
2023-05-09T01:24:34.705Z,74.77
2023-05-09T01:25:34.881Z,48.50
2023-05-09T01:26:35.892Z,57.20
2023-05-09T01:27:35.284Z,79.28
2023-05-09T01:28:35.926Z,50.92
2023-05-09T01:29:35.585Z,54.95
2023-05-09T01:30:35.875Z,49.63
2023-05-09T01:31:36.027Z,73.64
2023-05-09T01:32:36.265Z,65.10
2023-05-09T01:33:36.426Z,72.35
2023-05-09T01:34:37.888Z,53.17
2023-05-09T01:35:36.760Z,54.30
2023-05-09T01:36:37.402Z,50.43
2023-05-09T01:37:39.778Z,52.21
2023-05-09T01:38:37.440Z,50.60
2023-05-09T01:39:37.467Z,50.27
2023-05-09T01:40:37.610Z,54.62
2023-05-09T01:41:37.739Z,49.63
2023-05-09T01:42:37.922Z,50.27
2023-05-09T01:43:38.942Z,50.27
2023-05-09T01:44:38.289Z,53.17
2023-05-09T01:45:38.598Z,51.24
2023-05-09T01:46:39.480Z,51.24
2023-05-09T01:47:38.794Z,53.98
2023-05-09T01:48:39.938Z,50.43
2023-05-09T01:49:39.182Z,52.85
2023-05-09T01:50:39.894Z,72.99
2023-05-09T01:51:40.342Z,54.95
2023-05-09T01:52:39.947Z,51.40
2023-05-09T01:53:40.433Z,79.76
2023-05-09T01:54:40.932Z,62.68
2023-05-09T01:55:40.963Z,60.26
2023-05-09T01:56:40.467Z,74.28
2023-05-09T01:57:40.641Z,50.27
2023-05-09T01:58:40.806Z,54.46
2023-05-09T01:59:40.968Z,53.82
2023-05-09T02:00:41.338Z,54.62
2023-05-09T02:01:41.311Z,60.10
2023-05-09T02:02:41.547Z,75.41
2023-05-09T02:03:42.465Z,54.46
2023-05-09T02:04:43.401Z,75.25
2023-05-09T02:05:42.044Z,51.08
2023-05-09T02:06:42.940Z,54.30
2023-05-09T02:07:42.904Z,52.21
2023-05-09T02:08:43.436Z,54.79
2023-05-09T02:09:43.431Z,53.82
2023-05-09T02:10:42.949Z,77.67
2023-05-09T02:11:43.932Z,51.40
2023-05-09T02:12:43.366Z,61.55
2023-05-09T02:13:44.519Z,74.77
2023-05-09T02:14:44.676Z,78.47
2023-05-09T02:15:43.853Z,73.48
2023-05-09T02:16:44.256Z,52.37
2023-05-09T02:17:44.991Z,50.60
2023-05-09T02:18:44.381Z,49.15
2023-05-09T02:19:44.515Z,69.45
2023-05-09T02:20:45.476Z,54.62
2023-05-09T02:21:45.442Z,77.50
2023-05-09T02:22:46.399Z,56.88
2023-05-09T02:23:45.258Z,57.36
2023-05-09T02:24:45.404Z,58.33
2023-05-09T02:25:45.580Z,70.90
2023-05-09T02:26:45.728Z,77.34
2023-05-09T02:27:45.864Z,77.34
2023-05-09T02:28:46.949Z,80.41
2023-05-09T02:29:46.950Z,74.77
2023-05-09T02:30:46.458Z,73.64
2023-05-09T02:31:46.474Z,78.79
2023-05-09T02:32:46.804Z,75.73
2023-05-09T02:33:47.406Z,55.75
2023-05-09T02:34:47.005Z,55.43
2023-05-09T02:35:48.922Z,63.00
2023-05-09T02:36:47.276Z,72.99
2023-05-09T02:37:48.398Z,70.42
2023-05-09T02:38:47.618Z,77.34
2023-05-09T02:39:47.740Z,74.28
2023-05-09T02:40:50.322Z,57.04
2023-05-09T02:41:48.065Z,77.83
2023-05-09T02:42:48.364Z,79.28
2023-05-09T02:43:49.405Z,72.03
2023-05-09T02:44:49.411Z,68.80
2023-05-09T02:45:48.807Z,74.44
2023-05-09T02:46:49.959Z,81.21
2023-05-09T02:47:49.347Z,76.86
2023-05-09T02:48:49.410Z,75.25
2023-05-09T02:49:51.416Z,74.28
2023-05-09T02:50:50.299Z,63.65
2023-05-09T02:51:50.907Z,76.54
2023-05-09T02:52:50.914Z,72.83
2023-05-09T02:53:50.793Z,75.89
2023-05-09T02:54:50.423Z,74.77
2023-05-09T02:55:50.564Z,69.45
2023-05-09T02:56:50.713Z,75.57
2023-05-09T02:57:58.908Z,77.83
2023-05-09T02:58:52.950Z,75.09
2023-05-09T02:59:51.157Z,74.77
2023-05-09T03:00:51.329Z,78.96
2023-05-09T03:01:51.519Z,77.67
2023-05-09T03:02:51.756Z,76.70
2023-05-09T03:03:52.122Z,74.28
2023-05-09T03:04:52.093Z,79.92
2023-05-09T03:05:52.915Z,77.02
2023-05-09T03:06:52.447Z,73.48
2023-05-09T03:07:52.588Z,75.89
2023-05-09T03:08:52.723Z,75.25
2023-05-09T03:09:53.481Z,75.73
2023-05-09T03:10:53.918Z,78.47
2023-05-09T03:11:53.280Z,75.25
2023-05-09T03:12:53.499Z,78.96
2023-05-09T03:13:53.649Z,76.05
2023-05-09T03:14:54.418Z,76.86
2023-05-09T03:15:54.928Z,77.18
2023-05-09T03:16:54.919Z,77.18
2023-05-09T03:17:54.428Z,74.77
2023-05-09T03:18:54.704Z,76.22
2023-05-09T03:19:55.474Z,76.70
2023-05-09T03:20:55.483Z,75.73
2023-05-09T03:21:55.108Z,79.44
2023-05-09T03:22:55.273Z,78.63
2023-05-09T03:23:56.416Z,75.89
2023-05-09T03:24:55.558Z,77.99
2023-05-09T03:25:56.475Z,82.34
2023-05-09T03:26:55.886Z,78.47
2023-05-09T03:27:57.927Z,77.02
2023-05-09T03:28:56.142Z,77.18
2023-05-09T03:29:56.308Z,78.96
2023-05-09T03:30:56.443Z,76.70
2023-05-09T03:31:56.608Z,81.53
2023-05-09T03:32:58.456Z,78.47
2023-05-09T03:33:57.608Z,79.28
2023-05-09T03:34:57.194Z,77.02
2023-05-09T03:35:57.373Z,81.37
2023-05-09T03:36:57.501Z,76.70
2023-05-09T03:37:58.926Z,77.67
2023-05-09T03:38:58.479Z,77.67
2023-05-09T03:39:59.423Z,77.67
2023-05-09T03:40:58.163Z,80.73
2023-05-09T03:41:59.926Z,77.83
2023-05-09T03:42:58.541Z,77.50
2023-05-09T03:43:58.691Z,80.89
2023-05-09T03:44:58.850Z,76.70
2023-05-09T03:45:59.007Z,78.31
2023-05-09T03:47:00.061Z,81.21
2023-05-09T03:47:59.952Z,78.63
2023-05-09T03:49:00.542Z,79.76
2023-05-09T03:49:59.694Z,78.31
2023-05-09T03:51:00.472Z,79.28
2023-05-09T03:52:00.042Z,79.92
2023-05-09T03:53:00.258Z,79.44
2023-05-09T03:54:00.423Z,75.73
2023-05-09T03:55:00.618Z,77.67
2023-05-09T03:56:00.768Z,82.34
2023-05-09T03:57:00.934Z,77.99
2023-05-09T03:58:01.125Z,78.79
2023-05-09T03:59:01.280Z,76.86
2023-05-09T04:00:01.476Z,80.08
2023-05-09T04:01:02.475Z,78.79
2023-05-09T04:02:02.465Z,81.69
2023-05-09T04:03:02.063Z,76.38
2023-05-09T04:04:02.185Z,77.50
2023-05-09T04:05:02.510Z,77.99
2023-05-09T04:06:02.990Z,78.79
2023-05-09T04:07:02.773Z,76.38
2023-05-09T04:08:02.943Z,81.53
2023-05-09T04:09:03.107Z,77.02
2023-05-09T04:10:03.258Z,80.73
2023-05-09T04:11:03.521Z,77.99
2023-05-09T04:12:03.663Z,84.11
2023-05-09T04:13:03.924Z,80.89
2023-05-09T04:14:04.995Z,78.63
2023-05-09T04:15:04.129Z,77.34
2023-05-09T04:16:04.393Z,81.53
2023-05-09T04:17:04.593Z,78.79
2023-05-09T04:18:04.840Z,80.89
2023-05-09T04:19:05.985Z,77.99
2023-05-09T04:20:05.386Z,77.83
2023-05-09T04:21:05.972Z,79.28
2023-05-09T04:22:05.619Z,78.96
2023-05-09T04:23:05.770Z,83.47
2023-05-09T04:24:05.987Z,81.86
2023-05-09T04:25:06.123Z,78.63
2023-05-09T04:26:06.279Z,81.86
2023-05-09T04:27:06.978Z,81.53
2023-05-09T04:28:07.011Z,78.96
2023-05-09T04:29:06.804Z,78.47
2023-05-09T04:30:06.955Z,76.54
2023-05-09T04:31:07.562Z,80.89
2023-05-09T04:32:07.387Z,74.60
2023-05-09T04:33:08.474Z,80.89
2023-05-09T04:34:08.022Z,78.79
2023-05-09T04:35:07.818Z,78.63
2023-05-09T04:36:08.139Z,79.12
2023-05-09T04:37:09.945Z,75.25
2023-05-09T04:38:08.984Z,76.38
2023-05-09T04:39:09.492Z,76.38
2023-05-09T04:40:08.991Z,78.47
2023-05-09T04:41:10.458Z,80.24
2023-05-09T04:42:09.257Z,82.18
2023-05-09T04:43:09.393Z,79.92
2023-05-09T04:44:10.446Z,81.37
2023-05-09T04:45:09.689Z,72.03
2023-05-09T04:46:09.853Z,81.53
2023-05-09T04:47:10.050Z,75.89
2023-05-09T04:48:10.959Z,76.54
2023-05-09T04:49:11.002Z,78.79
2023-05-09T04:50:10.553Z,75.25
2023-05-09T04:51:10.861Z,83.31
2023-05-09T04:52:11.891Z,76.54
2023-05-09T04:53:10.990Z,79.60
2023-05-09T04:54:11.239Z,76.86
2023-05-09T04:55:12.020Z,78.31
2023-05-09T04:56:12.487Z,77.99
2023-05-09T04:57:18.107Z,78.79
2023-05-09T04:58:13.881Z,77.67
2023-05-09T04:59:12.501Z,78.79
2023-05-09T05:00:12.249Z,75.73
2023-05-09T05:01:12.563Z,82.18
2023-05-09T05:02:13.516Z,79.28
2023-05-09T05:03:12.778Z,73.15
2023-05-09T05:04:13.538Z,77.83
2023-05-09T05:05:13.155Z,74.93
2023-05-09T05:06:13.505Z,78.79
2023-05-09T05:07:13.492Z,77.99
2023-05-09T05:08:14.039Z,78.15
2023-05-09T05:09:13.849Z,79.28
2023-05-09T05:10:14.655Z,77.18
2023-05-09T05:11:15.991Z,80.41
2023-05-09T05:12:14.323Z,82.34
2023-05-09T05:13:14.544Z,76.22
2023-05-09T05:14:15.454Z,76.22
2023-05-09T05:15:17.090Z,76.38
2023-05-09T05:16:15.063Z,79.76
2023-05-09T05:17:16.003Z,77.67
2023-05-09T05:18:15.958Z,77.50
2023-05-09T05:19:16.497Z,77.02
2023-05-09T05:20:16.466Z,77.67
2023-05-09T05:21:15.955Z,77.50
2023-05-09T05:22:16.187Z,79.12
2023-05-09T05:23:16.330Z,75.73
2023-05-09T05:24:16.442Z,76.86
2023-05-09T05:25:17.955Z,75.25
2023-05-09T05:26:16.795Z,76.54
2023-05-09T05:27:19.494Z,78.96
2023-05-09T05:28:17.130Z,73.64
2023-05-09T05:29:18.006Z,78.79
2023-05-09T05:30:17.962Z,76.86
2023-05-09T05:31:18.037Z,78.79
2023-05-09T05:32:17.859Z,75.57
2023-05-09T05:33:17.999Z,76.70
2023-05-09T05:34:18.154Z,78.15
2023-05-09T05:35:18.997Z,72.99
2023-05-09T05:36:19.466Z,78.79
2023-05-09T05:37:18.900Z,76.70
2023-05-09T05:38:19.500Z,75.41
2023-05-09T05:39:19.151Z,75.57
2023-05-09T05:40:19.998Z,76.05
2023-05-09T05:41:19.515Z,74.28
2023-05-09T05:42:20.471Z,72.67
2023-05-09T05:43:20.346Z,70.09
2023-05-09T05:44:19.996Z,71.87
2023-05-09T05:45:20.956Z,75.89
2023-05-09T05:46:21.059Z,75.25
2023-05-09T05:47:20.585Z,77.50
2023-05-09T05:48:21.364Z,77.34
2023-05-09T05:49:21.477Z,73.15
2023-05-09T05:50:21.124Z,75.25
2023-05-09T05:51:22.019Z,71.06
2023-05-09T05:52:21.585Z,78.63
2023-05-09T05:53:21.600Z,78.31
2023-05-09T05:54:21.734Z,77.34
2023-05-09T05:55:21.888Z,76.22
2023-05-09T05:56:22.046Z,73.32
2023-05-09T05:57:22.510Z,80.57
2023-05-09T05:58:22.976Z,74.77
2023-05-09T05:59:22.628Z,76.38
2023-05-09T06:00:22.804Z,76.38
2023-05-09T06:01:22.948Z,76.22
2023-05-09T06:02:25.382Z,74.12
2023-05-09T06:03:23.290Z,73.64
2023-05-09T06:04:24.004Z,75.73
2023-05-09T06:05:23.649Z,76.86
2023-05-09T06:06:24.462Z,72.19
2023-05-09T06:07:24.491Z,80.89
2023-05-09T06:08:25.022Z,75.73
2023-05-09T06:09:24.253Z,78.15
2023-05-09T06:10:24.962Z,78.96
2023-05-09T06:11:25.580Z,78.63
2023-05-09T06:12:27.284Z,75.57
2023-05-09T06:13:25.055Z,78.96
2023-05-09T06:14:26.021Z,71.87
2023-05-09T06:15:26.052Z,78.47
2023-05-09T06:16:25.489Z,78.47
2023-05-09T06:17:25.624Z,78.63
2023-05-09T06:18:25.786Z,77.34
2023-05-09T06:19:25.913Z,75.89
2023-05-09T06:20:27.987Z,76.22
2023-05-09T06:21:26.982Z,77.02
2023-05-09T06:22:26.340Z,76.86
2023-05-09T06:23:26.562Z,76.86
2023-05-09T06:24:35.076Z,79.28
2023-05-09T06:25:29.517Z,75.57
2023-05-09T06:26:26.968Z,77.34
2023-05-09T06:27:27.084Z,73.96
2023-05-09T06:28:27.311Z,78.96
2023-05-09T06:29:27.565Z,78.15
2023-05-09T06:30:27.780Z,76.05
2023-05-09T06:31:27.945Z,77.34
2023-05-09T06:32:28.223Z,73.15
2023-05-09T06:33:29.991Z,78.96
2023-05-09T06:34:28.982Z,79.76
2023-05-09T06:35:28.602Z,76.22
2023-05-09T06:36:28.709Z,75.25
2023-05-09T06:37:28.943Z,73.96
2023-05-09T06:38:29.196Z,77.50
2023-05-09T06:39:29.427Z,76.54
2023-05-09T06:40:29.561Z,75.41
2023-05-09T06:41:30.521Z,76.38
2023-05-09T06:42:29.894Z,78.63
2023-05-09T06:43:30.064Z,80.57
2023-05-09T06:44:30.285Z,75.57
2023-05-09T06:45:30.451Z,75.09
2023-05-09T06:46:31.546Z,77.18
2023-05-09T06:47:30.859Z,73.48
2023-05-09T06:48:31.016Z,75.25
2023-05-09T06:49:31.176Z,77.18
2023-05-09T06:50:32.908Z,75.89
2023-05-09T06:51:32.452Z,76.54
2023-05-09T06:52:31.814Z,75.57
2023-05-09T06:53:33.493Z,74.60
2023-05-09T06:54:33.105Z,81.21
2023-05-09T06:55:33.019Z,77.67
2023-05-09T06:56:32.405Z,77.99
2023-05-09T06:57:32.565Z,75.09
2023-05-09T06:58:55.373Z,76.22
2023-05-09T06:59:33.490Z,75.73
2023-05-09T07:00:33.122Z,76.38
2023-05-09T07:01:34.008Z,76.38
2023-05-09T07:02:34.036Z,77.34
2023-05-09T07:03:33.554Z,72.19
2023-05-09T07:04:33.742Z,77.83
2023-05-09T07:05:34.107Z,75.89
2023-05-09T07:06:34.073Z,75.89
2023-05-09T07:07:34.992Z,78.96
2023-05-09T07:08:34.364Z,80.57
2023-05-09T07:09:34.515Z,77.83
2023-05-09T07:10:35.794Z,74.77
2023-05-09T07:11:35.581Z,78.47
2023-05-09T07:12:35.095Z,74.28
2023-05-09T07:13:36.042Z,79.12
2023-05-09T07:14:35.553Z,73.48
2023-05-09T07:15:42.202Z,76.54
2023-05-09T07:16:38.570Z,74.77
2023-05-09T07:17:39.042Z,80.41
2023-05-09T07:18:36.079Z,75.09
2023-05-09T07:19:36.296Z,76.22
2023-05-09T07:20:36.533Z,78.15
2023-05-09T07:21:38.499Z,79.92
2023-05-09T07:22:37.659Z,74.60
2023-05-09T07:23:37.912Z,79.44
2023-05-09T07:24:37.063Z,76.54
2023-05-09T07:25:37.197Z,86.53
2023-05-09T07:26:38.157Z,78.31
2023-05-09T07:27:37.489Z,75.89
2023-05-09T07:28:37.724Z,76.70
2023-05-09T07:29:38.071Z,75.09
2023-05-09T07:30:38.086Z,75.89
2023-05-09T07:31:38.374Z,76.86
2023-05-09T07:32:38.584Z,75.09
2023-05-09T07:33:38.739Z,75.09
2023-05-09T07:34:38.896Z,78.47
2023-05-09T07:35:39.041Z,74.60
2023-05-09T07:37:40.356Z,80.41
2023-05-09T07:38:40.511Z,76.22
2023-05-09T07:39:39.750Z,75.09
2023-05-09T07:40:39.898Z,77.50
2023-05-09T07:41:42.326Z,75.09
2023-05-09T07:42:41.011Z,77.50
2023-05-09T07:43:41.008Z,78.79
2023-05-09T07:44:40.513Z,81.05
2023-05-09T07:45:41.102Z,75.09
2023-05-09T07:46:41.542Z,77.67
2023-05-09T07:47:41.046Z,73.15
2023-05-09T07:48:42.502Z,75.25
2023-05-09T07:49:41.398Z,81.05
2023-05-09T07:50:41.572Z,79.12
2023-05-09T07:51:41.709Z,75.41
2023-05-09T07:52:41.859Z,75.89
2023-05-09T07:53:42.056Z,78.63
2023-05-09T07:54:42.317Z,76.54
2023-05-09T07:55:42.493Z,82.02
2023-05-09T07:56:42.771Z,84.11
2023-05-09T07:57:42.783Z,80.24
2023-05-09T07:58:43.512Z,70.58
2023-05-09T07:59:44.084Z,75.41
2023-05-09T08:00:43.334Z,78.63
2023-05-09T08:01:44.007Z,83.31
2023-05-09T08:02:43.776Z,80.24
2023-05-09T08:03:44.021Z,78.15
2023-05-09T08:04:44.559Z,80.73
2023-05-09T08:05:45.048Z,81.53
2023-05-09T08:06:45.891Z,77.67
2023-05-09T08:07:45.505Z,77.18
2023-05-09T08:08:46.889Z,76.22
2023-05-09T08:09:44.994Z,77.67
2023-05-09T08:10:46.059Z,82.18
2023-05-09T08:11:45.548Z,77.34
2023-05-09T08:12:45.596Z,76.38
2023-05-09T08:13:45.730Z,88.95
2023-05-09T08:14:46.070Z,77.18
2023-05-09T08:15:46.137Z,74.77
2023-05-09T08:16:46.305Z,80.73
2023-05-09T08:17:46.535Z,76.86
2023-05-09T08:18:46.629Z,76.70
2023-05-09T08:19:47.071Z,77.67
2023-05-09T08:20:46.965Z,74.60
2023-05-09T08:21:48.014Z,76.22
2023-05-09T08:22:47.269Z,78.47
2023-05-09T08:23:47.400Z,76.38
2023-05-09T08:24:47.561Z,79.60
2023-05-09T08:25:48.569Z,75.25
2023-05-09T08:26:48.637Z,74.60
2023-05-09T08:27:48.008Z,75.73
2023-05-09T08:28:50.519Z,74.60
2023-05-09T08:29:49.529Z,87.17
2023-05-09T08:30:49.095Z,77.99
2023-05-09T08:31:48.847Z,73.48
2023-05-09T08:32:49.569Z,77.99
2023-05-09T08:33:49.519Z,78.47
2023-05-09T08:34:50.020Z,76.86
2023-05-09T08:35:49.268Z,77.02
2023-05-09T08:36:49.405Z,80.57
2023-05-09T08:37:50.551Z,75.89
2023-05-09T08:38:52.462Z,72.83
2023-05-09T08:39:50.074Z,75.41
2023-05-09T08:40:50.105Z,75.41
2023-05-09T08:41:52.142Z,79.12
2023-05-09T08:42:50.491Z,78.47
2023-05-09T08:43:50.662Z,76.22
2023-05-09T08:44:51.084Z,73.80
2023-05-09T08:45:52.915Z,76.54
2023-05-09T08:46:51.228Z,75.09
2023-05-09T08:47:51.367Z,82.66
2023-05-09T08:48:51.578Z,74.77
2023-05-09T08:49:51.717Z,76.05
2023-05-09T08:50:52.563Z,79.28
2023-05-09T08:51:53.081Z,72.67
2023-05-09T08:52:53.077Z,75.89
2023-05-09T08:53:52.468Z,80.08
2023-05-09T08:54:52.648Z,76.38
2023-05-09T08:55:52.831Z,76.70
2023-05-09T08:56:53.527Z,77.18
2023-05-09T08:57:53.274Z,82.34
2023-05-09T08:58:53.287Z,79.76
2023-05-09T08:59:53.410Z,79.12
2023-05-09T09:00:53.562Z,78.47
2023-05-09T09:01:53.745Z,77.67
2023-05-09T09:02:54.020Z,79.28
2023-05-09T09:03:54.177Z,78.15
2023-05-09T09:04:54.291Z,77.18
2023-05-09T09:05:55.073Z,77.50
2023-05-09T09:06:54.641Z,77.02
2023-05-09T09:07:54.811Z,71.54
2023-05-09T09:08:55.089Z,73.15
2023-05-09T09:09:56.028Z,75.57
2023-05-09T09:10:56.543Z,75.41
2023-05-09T09:11:55.555Z,74.93
2023-05-09T09:12:55.845Z,80.41
2023-05-09T09:13:55.878Z,81.37
2023-05-09T09:14:56.547Z,77.02
2023-05-09T09:15:56.180Z,74.28
2023-05-09T09:16:56.338Z,77.50
2023-05-09T09:17:56.526Z,74.77
2023-05-09T09:18:58.939Z,76.70
2023-05-09T09:19:57.916Z,73.96
2023-05-09T09:20:57.137Z,73.96
2023-05-09T09:21:58.048Z,78.15
2023-05-09T09:22:57.521Z,78.79
2023-05-09T09:23:58.536Z,79.28
2023-05-09T09:24:58.086Z,74.60
2023-05-09T09:25:59.600Z,76.86
2023-05-09T09:26:59.194Z,76.05
2023-05-09T09:27:58.541Z,75.89
2023-05-09T09:28:58.545Z,74.60
2023-05-09T09:29:58.749Z,75.09
2023-05-09T09:30:59.604Z,75.57
2023-05-09T09:31:59.134Z,80.57
2023-05-09T09:33:00.127Z,76.38
2023-05-09T09:33:59.440Z,75.89
2023-05-09T09:34:59.618Z,76.05
2023-05-09T09:36:00.546Z,73.96
2023-05-09T09:36:59.945Z,73.15
2023-05-09T09:38:00.393Z,80.24
2023-05-09T09:39:00.223Z,75.41
2023-05-09T09:40:01.078Z,76.70
2023-05-09T09:41:00.616Z,75.25
2023-05-09T09:42:00.768Z,81.05
2023-05-09T09:43:01.671Z,75.09
2023-05-09T09:44:01.084Z,78.79
2023-05-09T09:45:01.295Z,75.25
2023-05-09T09:46:02.153Z,75.41
2023-05-09T09:47:01.716Z,75.73
2023-05-09T09:48:01.922Z,75.73
2023-05-09T09:49:03.999Z,78.15
2023-05-09T09:50:03.047Z,76.70
2023-05-09T09:51:02.549Z,75.89
2023-05-09T09:52:03.546Z,77.50
2023-05-09T09:53:03.954Z,77.18
2023-05-09T09:54:03.122Z,79.76
2023-05-09T09:55:03.310Z,75.09
2023-05-09T09:56:03.527Z,75.09
2023-05-09T09:57:03.707Z,75.41
2023-05-09T09:58:04.214Z,74.77
2023-05-09T09:59:05.550Z,78.96
2023-05-09T10:00:05.090Z,80.08
2023-05-09T10:01:04.561Z,73.64
2023-05-09T10:02:08.056Z,78.15
2023-05-09T10:03:06.672Z,78.63
2023-05-09T10:04:04.966Z,75.09
2023-05-09T10:05:05.164Z,73.64
2023-05-09T10:06:05.306Z,77.18
2023-05-09T10:07:05.511Z,79.60
2023-05-09T10:08:06.570Z,74.44
2023-05-09T10:09:05.828Z,83.14
2023-05-09T10:10:06.140Z,75.73
2023-05-09T10:11:06.173Z,76.86
2023-05-09T10:12:06.465Z,75.41
2023-05-09T10:13:07.267Z,73.80
2023-05-09T10:14:07.741Z,77.99
2023-05-09T10:15:07.870Z,75.25
2023-05-09T10:16:07.033Z,78.96
2023-05-09T10:17:07.223Z,74.60
2023-05-09T10:18:08.742Z,78.47
2023-05-09T10:19:08.182Z,77.18
2023-05-09T10:20:07.722Z,79.12
2023-05-09T10:21:08.556Z,77.50
2023-05-09T10:22:08.045Z,75.25
2023-05-09T10:23:08.228Z,73.15
2023-05-09T10:24:08.376Z,75.89
2023-05-09T10:25:09.126Z,74.12
2023-05-09T10:26:10.560Z,79.76
2023-05-09T10:27:09.603Z,80.08
2023-05-09T10:28:09.726Z,81.05
2023-05-09T10:29:09.341Z,74.12
2023-05-09T10:30:09.493Z,76.05
2023-05-09T10:31:09.661Z,78.31
2023-05-09T10:32:09.855Z,73.32
2023-05-09T10:33:10.062Z,74.77
2023-05-09T10:34:11.085Z,75.73
2023-05-09T10:35:11.056Z,77.02
2023-05-09T10:36:12.556Z,74.44
2023-05-09T10:37:10.906Z,74.44
2023-05-09T10:38:11.554Z,79.92
2023-05-09T10:39:12.063Z,81.21
2023-05-09T10:40:11.295Z,78.47
2023-05-09T10:41:11.433Z,76.70
2023-05-09T10:42:11.694Z,74.77
2023-05-09T10:43:11.945Z,75.25
2023-05-09T10:44:11.987Z,75.41
2023-05-09T10:45:12.161Z,74.44
2023-05-09T10:46:13.630Z,76.70
2023-05-09T10:47:13.057Z,77.02
2023-05-09T10:48:16.063Z,75.73
2023-05-09T10:49:12.977Z,73.48
2023-05-09T10:50:14.056Z,75.57
2023-05-09T10:51:13.318Z,76.54
2023-05-09T10:52:14.101Z,77.02
2023-05-09T10:53:13.706Z,73.15
2023-05-09T10:54:13.837Z,81.05
2023-05-09T10:55:14.194Z,76.54
2023-05-09T10:56:14.124Z,77.34
2023-05-09T10:57:14.262Z,76.54
2023-05-09T10:58:15.189Z,76.70
2023-05-09T10:59:14.531Z,78.63
2023-05-09T11:00:14.693Z,79.76
2023-05-09T11:01:15.811Z,76.22
2023-05-09T11:02:15.981Z,76.70
2023-05-09T11:03:15.795Z,76.70
2023-05-09T11:04:15.295Z,76.70
2023-05-09T11:05:17.291Z,76.54
2023-05-09T11:06:15.638Z,85.56
2023-05-09T11:07:15.812Z,75.89
2023-05-09T11:08:16.600Z,79.28
2023-05-09T11:09:17.574Z,77.67
2023-05-09T11:10:16.305Z,75.73
2023-05-09T11:11:17.069Z,74.12
2023-05-09T11:12:16.707Z,75.57
2023-05-09T11:13:16.852Z,76.54
2023-05-09T11:14:17.117Z,75.41
2023-05-09T11:15:17.203Z,74.60
2023-05-09T11:16:17.303Z,77.83
2023-05-09T11:17:17.461Z,76.70
2023-05-09T11:18:18.923Z,77.67
2023-05-09T11:19:17.768Z,76.54
2023-05-09T11:20:18.575Z,78.47
2023-05-09T11:21:18.201Z,75.89
2023-05-09T11:22:19.077Z,78.15
2023-05-09T11:23:18.467Z,76.70
2023-05-09T11:24:18.641Z,78.15
2023-05-09T11:25:18.771Z,79.12
2023-05-09T11:26:18.916Z,73.96
2023-05-09T11:27:19.102Z,80.89
2023-05-09T11:28:20.737Z,77.99
2023-05-09T11:29:21.205Z,74.93
2023-05-09T11:30:19.772Z,73.80
2023-05-09T11:31:21.640Z,82.34
2023-05-09T11:32:19.901Z,78.15
2023-05-09T11:33:20.076Z,68.80
2023-05-09T11:34:20.275Z,77.02
2023-05-09T11:35:20.432Z,74.93
2023-05-09T11:36:20.659Z,75.09
2023-05-09T11:37:20.756Z,78.31
2023-05-09T11:38:21.636Z,75.89
2023-05-09T11:39:21.027Z,78.63
2023-05-09T11:40:22.078Z,76.54
2023-05-09T11:41:21.357Z,76.22
2023-05-09T11:42:22.081Z,73.64
2023-05-09T11:43:21.720Z,76.86
2023-05-09T11:44:21.880Z,76.38
2023-05-09T11:45:22.113Z,72.83
2023-05-09T11:46:22.317Z,81.21
2023-05-09T11:47:23.202Z,75.25
2023-05-09T11:48:22.743Z,77.02
2023-05-09T11:49:22.884Z,85.40
2023-05-09T11:50:23.079Z,79.12
2023-05-09T11:51:24.148Z,78.15
2023-05-09T11:52:23.981Z,77.34
2023-05-09T11:53:24.595Z,77.67
2023-05-09T11:54:24.610Z,76.05
2023-05-09T11:55:24.012Z,90.40
2023-05-09T11:56:24.161Z,80.24
2023-05-09T11:57:24.362Z,71.06
2023-05-09T11:58:25.087Z,74.44
2023-05-09T11:59:24.720Z,75.41
2023-05-09T12:00:25.008Z,77.83
2023-05-09T12:01:26.643Z,77.18
2023-05-09T12:02:25.348Z,78.47
2023-05-09T12:03:25.682Z,77.34
2023-05-09T12:04:25.615Z,76.54
2023-05-09T12:05:26.600Z,81.53
2023-05-09T12:06:26.588Z,73.64
2023-05-09T12:07:26.655Z,76.54
2023-05-09T12:08:26.325Z,76.22
2023-05-09T12:09:27.593Z,75.25
2023-05-09T12:10:26.719Z,74.44
2023-05-09T12:11:27.631Z,75.89
2023-05-09T12:12:27.634Z,78.96
2023-05-09T12:13:27.403Z,71.70
2023-05-09T12:14:28.096Z,77.18
2023-05-09T12:15:28.749Z,76.05
2023-05-09T12:16:29.150Z,79.44
2023-05-09T12:17:28.011Z,78.15
2023-05-09T12:18:28.154Z,75.09
2023-05-09T12:19:28.209Z,76.38
2023-05-09T12:20:28.346Z,77.18
2023-05-09T12:21:29.093Z,72.67
2023-05-09T12:22:31.095Z,75.25
2023-05-09T12:23:29.597Z,77.83
2023-05-09T12:24:29.102Z,79.12
2023-05-09T12:25:29.235Z,74.28
2023-05-09T12:26:29.654Z,79.28
2023-05-09T12:27:30.145Z,76.70
2023-05-09T12:28:29.784Z,74.60
2023-05-09T12:29:30.647Z,76.70
2023-05-09T12:30:32.216Z,78.63
2023-05-09T12:31:30.703Z,77.02
2023-05-09T12:32:30.517Z,75.73
2023-05-09T12:33:30.624Z,74.77
2023-05-09T12:34:31.652Z,73.64
2023-05-09T12:35:31.004Z,74.93
2023-05-09T12:36:32.597Z,78.63
2023-05-09T12:37:32.097Z,73.64
2023-05-09T12:38:32.101Z,73.15
2023-05-09T12:39:31.742Z,74.28
2023-05-09T12:40:31.906Z,76.22
2023-05-09T12:41:39.221Z,75.09
2023-05-09T12:42:34.203Z,75.09
2023-05-09T12:43:32.321Z,75.25
2023-05-09T12:44:32.479Z,75.73
2023-05-09T12:45:33.657Z,75.73
2023-05-09T12:46:33.025Z,74.28
2023-05-09T12:47:33.050Z,73.96
2023-05-09T12:48:33.277Z,79.44
2023-05-09T12:49:33.450Z,75.57
2023-05-09T12:50:33.620Z,75.57
2023-05-09T12:51:33.814Z,73.48
2023-05-09T12:52:34.026Z,77.18
2023-05-09T12:53:34.235Z,78.79
2023-05-09T12:54:35.135Z,72.99
2023-05-09T12:55:34.638Z,75.25